createdAt,value
2022-09-28T00:00:19.805Z,22.10
2022-09-28T00:02:46.559Z,22.10
2022-09-28T00:05:13.295Z,22.10
2022-09-28T00:07:39.893Z,22.10
2022-09-28T00:10:07.404Z,22.10
2022-09-28T00:12:34.584Z,22.10
2022-09-28T00:15:01.146Z,22.10
2022-09-28T00:17:27.722Z,22.10
2022-09-28T00:19:55.775Z,22.10
2022-09-28T00:22:22.344Z,22.00
2022-09-28T00:24:48.920Z,22.10
2022-09-28T00:27:15.494Z,22.10
2022-09-28T00:29:42.166Z,22.10
2022-09-28T00:32:11.966Z,22.00
2022-09-28T00:34:45.674Z,22.00
2022-09-28T00:37:13.213Z,22.00
2022-09-28T00:39:41.320Z,22.00
2022-09-28T00:42:14.804Z,22.00
2022-09-28T00:44:48.115Z,22.00
2022-09-28T00:47:31.667Z,22.00
2022-09-28T00:50:01.584Z,22.00
2022-09-28T00:52:35.802Z,22.00
2022-09-28T00:55:03.516Z,22.00
2022-09-28T00:57:30.206Z,22.00
2022-09-28T00:59:56.929Z,21.90
2022-09-28T01:02:23.597Z,22.00
2022-09-28T01:04:50.305Z,22.00
2022-09-28T01:07:18.147Z,22.00
2022-09-28T01:09:45.758Z,22.00
2022-09-28T01:12:12.397Z,21.90
2022-09-28T01:14:40.208Z,21.90
2022-09-28T01:17:08.583Z,21.90
2022-09-28T01:19:56.818Z,21.90
2022-09-28T01:22:54.272Z,21.90
2022-09-28T01:25:28.730Z,21.90
2022-09-28T01:27:59.802Z,21.90
2022-09-28T01:30:26.401Z,21.90
2022-09-28T01:33:10.881Z,21.90
2022-09-28T01:35:49.950Z,21.90
2022-09-28T01:38:21.297Z,21.90
2022-09-28T01:40:48.032Z,21.90
2022-09-28T01:43:17.084Z,21.90
2022-09-28T01:46:00.918Z,21.90
2022-09-28T01:48:37.194Z,21.90
2022-09-28T01:51:07.437Z,21.90
2022-09-28T01:53:45.993Z,21.80
2022-09-28T01:56:16.886Z,21.80
2022-09-28T01:58:49.254Z,21.90
2022-09-28T02:01:30.911Z,21.80
2022-09-28T02:04:08.728Z,21.80
2022-09-28T02:06:38.831Z,21.80
2022-09-28T02:09:10.830Z,21.80
2022-09-28T02:11:38.503Z,21.80
2022-09-28T02:14:06.783Z,21.80
2022-09-28T02:16:41.693Z,21.80
2022-09-28T02:19:14.025Z,21.80
2022-09-28T02:21:54.488Z,21.80
2022-09-28T02:24:42.231Z,21.80
2022-09-28T02:27:30.513Z,21.80
2022-09-28T02:29:57.209Z,21.80
2022-09-28T02:32:23.822Z,21.80
2022-09-28T02:34:50.672Z,21.80
2022-09-28T02:37:17.386Z,21.80
2022-09-28T02:39:44.003Z,21.80
2022-09-28T02:42:25.688Z,21.80
2022-09-28T02:45:16.359Z,21.70
2022-09-28T02:47:50.891Z,21.80
2022-09-28T02:50:46.429Z,21.80
2022-09-28T02:53:36.629Z,21.70
2022-09-28T02:56:28.986Z,21.70
2022-09-28T02:59:19.913Z,21.70
2022-09-28T03:02:06.529Z,21.70
2022-09-28T03:05:02.711Z,21.70
2022-09-28T03:07:36.764Z,21.70
2022-09-28T03:10:24.503Z,21.70
2022-09-28T03:12:51.193Z,21.70
2022-09-28T03:15:28.475Z,21.70
2022-09-28T03:17:55.743Z,21.70
2022-09-28T03:20:22.490Z,21.70
2022-09-28T03:23:12.423Z,21.70
2022-09-28T03:25:35.856Z,21.70
2022-09-28T03:28:02.833Z,21.70
2022-09-28T03:30:29.406Z,21.70
2022-09-28T03:33:00.051Z,21.70
2022-09-28T03:35:26.752Z,21.70
2022-09-28T03:37:56.447Z,21.70
2022-09-28T03:40:23.167Z,21.70
2022-09-28T03:42:49.847Z,21.70
2022-09-28T03:45:16.733Z,21.70
2022-09-28T03:47:47.075Z,21.70
2022-09-28T03:50:13.762Z,21.70
2022-09-28T03:52:40.478Z,21.70
2022-09-28T03:55:07.402Z,21.70
2022-09-28T03:57:33.990Z,21.70
2022-09-28T04:00:00.785Z,21.70
2022-09-28T04:02:27.484Z,21.70
2022-09-28T04:04:54.095Z,21.70
2022-09-28T04:07:20.707Z,21.70
2022-09-28T04:09:47.546Z,21.70
2022-09-28T04:12:14.180Z,21.70
2022-09-28T04:14:40.819Z,21.70
2022-09-28T04:17:07.398Z,21.70
2022-09-28T04:19:34.021Z,21.70
2022-09-28T04:22:01.907Z,21.70
2022-09-28T04:24:28.539Z,21.70
2022-09-28T04:27:17.868Z,21.70
2022-09-28T04:29:44.747Z,21.60
2022-09-28T04:32:11.947Z,21.70
2022-09-28T04:34:43.144Z,21.70
2022-09-28T04:37:11.090Z,21.60
2022-09-28T04:39:37.870Z,21.60
2022-09-28T04:42:04.473Z,21.60
2022-09-28T04:44:31.227Z,21.60
2022-09-28T04:47:01.652Z,21.60
2022-09-28T04:49:30.884Z,21.60
2022-09-28T04:51:57.462Z,21.60
2022-09-28T04:54:24.085Z,21.60
2022-09-28T04:56:51.144Z,21.60
2022-09-28T04:59:17.956Z,21.80
2022-09-28T05:01:44.695Z,22.50
2022-09-28T05:04:11.273Z,23.50
2022-09-28T05:06:37.969Z,24.60
2022-09-28T05:09:04.562Z,25.70
2022-09-28T05:11:31.265Z,26.90
2022-09-28T05:13:57.834Z,28.00
2022-09-28T05:16:26.158Z,29.00
2022-09-28T05:18:58.635Z,29.90
2022-09-28T05:21:26.372Z,30.90
2022-09-28T05:23:56.001Z,31.60
2022-09-28T05:26:24.824Z,32.20
2022-09-28T05:28:51.467Z,32.70
2022-09-28T05:31:18.141Z,33.00
2022-09-28T05:33:45.844Z,33.20
2022-09-28T05:36:12.468Z,33.30
2022-09-28T05:38:39.075Z,33.30
2022-09-28T05:41:06.806Z,33.20
2022-09-28T05:43:33.936Z,33.10
2022-09-28T05:46:00.670Z,32.90
2022-09-28T05:50:59.636Z,32.30
2022-09-28T05:53:26.352Z,32.00
2022-09-28T05:55:52.992Z,31.70
2022-09-28T05:58:19.630Z,31.40
2022-09-28T06:00:46.318Z,31.00
2022-09-28T06:03:13.957Z,30.60
2022-09-28T06:05:40.810Z,30.40
2022-09-28T06:08:08.468Z,30.10
2022-09-28T06:10:35.257Z,29.70
2022-09-28T06:13:02.033Z,29.50
2022-09-28T06:15:29.911Z,29.20
2022-09-28T06:18:00.117Z,28.90
2022-09-28T06:20:27.017Z,28.70
2022-09-28T06:22:53.971Z,28.40
2022-09-28T06:25:21.618Z,28.20
2022-09-28T06:27:55.997Z,28.00
2022-09-28T06:30:24.228Z,27.70
2022-09-28T06:32:53.709Z,27.60
2022-09-28T06:35:21.368Z,27.40
2022-09-28T06:37:48.162Z,27.20
2022-09-28T06:40:15.072Z,27.00
2022-09-28T06:42:41.812Z,26.80
2022-09-28T06:45:08.809Z,26.70
2022-09-28T06:47:35.455Z,26.80
2022-09-28T06:50:02.072Z,27.00
2022-09-28T06:52:28.727Z,27.40
2022-09-28T06:54:55.349Z,27.90
2022-09-28T06:57:22.012Z,28.50
2022-09-28T06:59:48.733Z,29.00
2022-09-28T07:02:15.485Z,29.60
2022-09-28T07:04:42.896Z,30.10
2022-09-28T07:07:10.614Z,30.60
2022-09-28T07:09:41.529Z,30.90
2022-09-28T07:12:13.082Z,31.30
2022-09-28T07:14:47.793Z,31.50
2022-09-28T07:17:15.254Z,31.50
2022-09-28T07:19:42.139Z,31.50
2022-09-28T07:22:08.750Z,31.50
2022-09-28T07:24:35.387Z,31.30
2022-09-28T07:27:05.525Z,31.10
2022-09-28T07:29:32.153Z,31.00
2022-09-28T07:31:58.757Z,30.80
2022-09-28T07:34:25.490Z,30.60
2022-09-28T07:36:58.797Z,30.30
2022-09-28T07:39:25.412Z,30.10
2022-09-28T07:41:56.615Z,29.80
2022-09-28T07:44:23.582Z,29.50
2022-09-28T07:46:50.571Z,29.30
2022-09-28T07:49:19.198Z,29.00
2022-09-28T07:51:45.972Z,28.70
2022-09-28T07:54:12.618Z,28.50
2022-09-28T07:56:39.212Z,28.30
2022-09-28T07:59:05.911Z,28.00
2022-09-28T08:01:32.703Z,27.90
2022-09-28T08:03:59.435Z,27.80
2022-09-28T08:06:26.139Z,27.80
2022-09-28T08:08:56.178Z,27.70
2022-09-28T08:11:22.781Z,27.70
2022-09-28T08:13:50.872Z,27.70
2022-09-28T08:16:18.970Z,27.60
2022-09-28T08:18:48.178Z,27.90
2022-09-28T08:21:33.151Z,28.20
2022-09-28T08:23:59.847Z,28.70
2022-09-28T08:26:26.551Z,29.20
2022-09-28T08:28:53.268Z,29.70
2022-09-28T08:31:21.023Z,30.10
2022-09-28T08:33:53.789Z,30.50
2022-09-28T08:36:23.945Z,30.90
2022-09-28T08:38:50.680Z,31.20
2022-09-28T08:41:40.099Z,31.60
2022-09-28T08:44:24.191Z,31.90
2022-09-28T08:46:56.428Z,32.10
2022-09-28T08:49:44.267Z,32.30
2022-09-28T08:52:17.136Z,32.50
2022-09-28T08:54:56.644Z,32.50
2022-09-28T08:57:25.266Z,32.40
2022-09-28T08:59:53.620Z,32.30
2022-09-28T09:02:33.354Z,32.20
2022-09-28T09:05:06.048Z,31.90
2022-09-28T09:07:57.010Z,31.70
2022-09-28T09:11:05.611Z,31.40
2022-09-28T09:14:03.340Z,31.10
2022-09-28T09:16:35.791Z,30.70
2022-09-28T09:19:17.957Z,30.40
2022-09-28T09:22:25.954Z,30.10
2022-09-28T09:24:59.845Z,29.70
2022-09-28T09:27:44.906Z,29.50
2022-09-28T09:30:13.729Z,29.20
2022-09-28T09:33:24.071Z,28.90
2022-09-28T09:36:46.131Z,28.60
2022-09-28T09:39:25.862Z,28.30
2022-09-28T09:41:59.855Z,28.00
2022-09-28T09:44:50.754Z,27.80
2022-09-28T09:47:40.135Z,27.50
2022-09-28T09:50:19.686Z,27.30
2022-09-28T09:52:55.742Z,27.10
2022-09-28T09:55:30.390Z,26.90
2022-09-28T09:58:11.019Z,26.70
2022-09-28T10:00:42.176Z,26.50
2022-09-28T10:03:17.400Z,26.50
2022-09-28T10:05:44.029Z,26.70
2022-09-28T10:08:16.001Z,27.10
2022-09-28T10:10:53.193Z,27.50
2022-09-28T10:13:19.947Z,28.00
2022-09-28T10:15:47.867Z,28.50
2022-09-28T10:18:15.996Z,28.90
2022-09-28T10:20:43.515Z,29.30
2022-09-28T10:23:24.135Z,29.80
2022-09-28T10:25:52.446Z,30.10
2022-09-28T10:28:26.251Z,30.30
2022-09-28T10:30:53.054Z,30.50
2022-09-28T10:33:35.138Z,30.60
2022-09-28T10:36:01.893Z,30.60
2022-09-28T10:38:29.289Z,30.60
2022-09-28T10:40:59.161Z,30.70
2022-09-28T10:43:39.417Z,30.80
2022-09-28T10:46:21.294Z,31.00
2022-09-28T10:48:58.356Z,31.30
2022-09-28T10:51:45.267Z,31.60
2022-09-28T10:54:17.035Z,31.90
2022-09-28T10:56:43.773Z,32.10
2022-09-28T10:59:29.456Z,32.30
2022-09-28T11:02:03.587Z,32.40
2022-09-28T11:04:34.236Z,32.50
2022-09-28T11:07:01.734Z,32.40
2022-09-28T11:09:38.929Z,32.30
2022-09-28T11:12:06.196Z,32.20
2022-09-28T11:14:42.082Z,32.00
2022-09-28T11:17:31.516Z,31.70
2022-09-28T11:19:59.858Z,31.40
2022-09-28T11:22:33.128Z,31.20
2022-09-28T11:25:18.263Z,30.90
2022-09-28T11:27:50.797Z,30.60
2022-09-28T11:30:24.603Z,30.30
2022-09-28T11:32:51.465Z,30.00
2022-09-28T11:35:28.293Z,29.70
2022-09-28T11:38:07.229Z,29.50
2022-09-28T11:40:45.922Z,29.20
2022-09-28T11:43:34.563Z,28.90
2022-09-28T11:46:08.287Z,28.70
2022-09-28T11:48:41.746Z,28.40
2022-09-28T11:51:11.487Z,28.20
2022-09-28T11:53:39.204Z,28.00
2022-09-28T11:56:09.164Z,27.80
2022-09-28T11:58:40.917Z,27.60
2022-09-28T12:01:18.792Z,27.40
2022-09-28T12:03:49.839Z,27.20
2022-09-28T12:06:21.980Z,27.00
2022-09-28T12:08:54.935Z,26.80
2022-09-28T12:11:25.217Z,26.60
2022-09-28T12:13:53.422Z,26.40
2022-09-28T12:16:53.044Z,26.30
2022-09-28T12:19:20.981Z,26.10
2022-09-28T12:21:51.243Z,26.00
2022-09-28T12:24:38.558Z,25.90
2022-09-28T12:27:23.332Z,25.70
2022-09-28T12:30:01.909Z,25.60
2022-09-28T12:32:44.735Z,25.60
2022-09-28T12:35:13.246Z,25.70
2022-09-28T12:37:46.989Z,26.10
2022-09-28T12:40:38.309Z,26.60
2022-09-28T12:43:40.521Z,27.00
2022-09-28T12:46:25.371Z,27.50
2022-09-28T12:49:36.670Z,27.80
2022-09-28T12:51:49.045Z,28.00
2022-09-28T12:54:18.570Z,28.50
2022-09-28T12:57:01.941Z,29.00
2022-09-28T12:59:35.216Z,29.70
2022-09-28T13:02:20.330Z,30.30
2022-09-28T13:04:47.263Z,31.00
2022-09-28T13:07:42.774Z,31.50
2022-09-28T13:10:16.746Z,32.00
2022-09-28T13:12:59.484Z,32.40
2022-09-28T13:15:46.140Z,32.60
2022-09-28T13:18:37.777Z,32.80
2022-09-28T13:21:38.815Z,32.90
2022-09-28T13:24:20.996Z,32.80
2022-09-28T13:26:54.746Z,32.80
2022-09-28T13:29:24.448Z,32.60
2022-09-28T13:31:57.846Z,32.40
2022-09-28T13:34:26.316Z,32.10
2022-09-28T13:37:17.209Z,31.90
2022-09-28T13:39:52.650Z,31.60
2022-09-28T13:42:29.406Z,31.30
2022-09-28T13:45:21.942Z,31.10
2022-09-28T13:47:54.289Z,30.70
2022-09-28T13:50:46.458Z,30.50
2022-09-28T13:53:39.646Z,30.20
2022-09-28T13:56:26.376Z,29.80
2022-09-28T13:59:21.998Z,29.50
2022-09-28T14:02:14.841Z,29.30
2022-09-28T14:04:59.204Z,28.90
2022-09-28T14:07:40.502Z,28.70
2022-09-28T14:10:51.731Z,28.40
2022-09-28T14:13:43.465Z,28.20
2022-09-28T14:16:22.230Z,27.90
2022-09-28T14:19:03.640Z,27.80
2022-09-28T14:21:58.174Z,27.60
2022-09-28T14:24:31.767Z,27.30
2022-09-28T14:27:19.369Z,27.10
2022-09-28T14:29:46.031Z,27.00
2022-09-28T14:32:24.065Z,26.80
2022-09-28T14:35:00.936Z,26.70
2022-09-28T14:37:47.603Z,26.50
2022-09-28T14:41:11.425Z,26.40
2022-09-28T14:43:44.324Z,26.20
2022-09-28T14:46:11.356Z,26.10
2022-09-28T14:48:48.843Z,26.00
2022-09-28T14:51:32.905Z,25.90
2022-09-28T14:54:11.528Z,25.80
2022-09-28T14:56:48.739Z,25.70
2022-09-28T14:59:26.233Z,25.60
2022-09-28T15:02:06.317Z,25.50
2022-09-28T15:04:36.547Z,25.40
2022-09-28T15:07:03.325Z,25.30
2022-09-28T15:09:33.875Z,25.30
2022-09-28T15:12:21.835Z,25.20
2022-09-28T15:14:55.302Z,25.10
2022-09-28T15:17:30.633Z,25.10
2022-09-28T15:20:33.933Z,25.00
2022-09-28T15:23:00.567Z,25.00
2022-09-28T15:25:29.108Z,24.90
2022-09-28T15:27:57.239Z,24.90
2022-09-28T15:30:35.843Z,25.10
2022-09-28T15:33:22.045Z,25.50
2022-09-28T15:36:01.394Z,26.00
2022-09-28T15:38:28.160Z,26.60
2022-09-28T15:40:54.904Z,27.00
2022-09-28T15:43:32.966Z,27.40
2022-09-28T15:46:21.526Z,27.70
2022-09-28T15:48:53.846Z,27.90
2022-09-28T15:51:25.067Z,28.10
2022-09-28T15:54:04.210Z,28.10
2022-09-28T15:56:30.868Z,28.20
2022-09-28T15:59:15.883Z,28.20
2022-09-28T16:01:43.158Z,28.00
2022-09-28T16:04:32.827Z,28.00
2022-09-28T16:07:18.623Z,27.90
2022-09-28T16:10:12.857Z,27.70
2022-09-28T16:12:58.663Z,27.60
2022-09-28T16:15:27.986Z,27.40
2022-09-28T16:18:17.902Z,27.30
2022-09-28T16:20:45.300Z,27.10
2022-09-28T16:23:15.976Z,27.00
2022-09-28T16:25:52.967Z,26.80
2022-09-28T16:28:46.264Z,26.70
2022-09-28T16:31:12.966Z,26.50
2022-09-28T16:33:57.999Z,26.40
2022-09-28T16:36:27.452Z,26.20
2022-09-28T16:39:01.168Z,26.10
2022-09-28T16:41:32.069Z,26.00
2022-09-28T16:44:00.786Z,25.80
2022-09-28T16:46:36.205Z,25.70
2022-09-28T16:49:03.448Z,25.60
2022-09-28T16:51:30.111Z,25.50
2022-09-28T16:54:32.975Z,25.40
2022-09-28T16:57:06.438Z,25.30
2022-09-28T16:59:39.369Z,25.20
2022-09-28T17:02:48.438Z,25.10
2022-09-28T17:05:08.791Z,25.00
2022-09-28T17:07:40.553Z,24.90
2022-09-28T17:10:19.177Z,24.80
2022-09-28T17:12:45.952Z,24.70
2022-09-28T17:15:13.125Z,24.70
2022-09-28T17:17:40.994Z,24.60
2022-09-28T17:20:34.552Z,24.50
2022-09-28T17:23:01.365Z,24.40
2022-09-28T17:25:28.360Z,24.40
2022-09-28T17:27:56.470Z,24.30
2022-09-28T17:30:23.711Z,24.30
2022-09-28T17:32:54.454Z,24.30
2022-09-28T17:35:25.343Z,24.10
2022-09-28T17:37:52.442Z,24.20
2022-09-28T17:40:25.852Z,24.00
2022-09-28T17:42:56.162Z,24.10
2022-09-28T17:45:25.789Z,24.00
2022-09-28T17:47:52.406Z,24.00
2022-09-28T17:50:26.306Z,23.90
2022-09-28T17:52:55.068Z,23.90
2022-09-28T17:55:31.470Z,23.90
2022-09-28T17:57:58.823Z,23.80
2022-09-28T18:00:27.415Z,23.80
2022-09-28T18:02:55.103Z,23.70
2022-09-28T18:05:22.155Z,23.70
2022-09-28T18:07:49.903Z,23.70
2022-09-28T18:10:21.945Z,23.60
2022-09-28T18:12:49.393Z,23.60
2022-09-28T18:15:16.859Z,23.50
2022-09-28T18:17:43.497Z,23.50
2022-09-28T18:20:10.865Z,23.60
2022-09-28T18:22:37.803Z,23.50
2022-09-28T18:25:05.335Z,23.50
2022-09-28T18:27:34.058Z,23.40
2022-09-28T18:30:01.220Z,23.40
2022-09-28T18:32:27.889Z,23.40
2022-09-28T18:34:54.523Z,23.40
2022-09-28T18:37:21.186Z,23.30
2022-09-28T18:39:48.007Z,23.30
2022-09-28T18:42:14.894Z,23.30
2022-09-28T18:44:41.826Z,23.30
2022-09-28T18:47:08.444Z,23.30
2022-09-28T18:49:35.226Z,23.20
2022-09-28T18:52:02.002Z,23.20
2022-09-28T18:54:28.604Z,23.20
2022-09-28T18:56:56.330Z,23.20
2022-09-28T18:59:23.400Z,23.20
2022-09-28T19:01:50.242Z,23.20
2022-09-28T19:04:17.096Z,23.20
2022-09-28T19:06:44.628Z,23.10
2022-09-28T19:09:11.617Z,23.10
2022-09-28T19:11:38.253Z,23.10
2022-09-28T19:14:04.968Z,23.10
2022-09-28T19:16:33.986Z,23.00
2022-09-28T19:19:02.056Z,23.00
2022-09-28T19:21:28.979Z,23.00
2022-09-28T19:23:55.754Z,23.00
2022-09-28T19:26:24.546Z,23.00
2022-09-28T19:28:51.344Z,23.00
2022-09-28T19:31:18.027Z,23.00
2022-09-28T19:33:48.099Z,23.00
2022-09-28T19:36:17.663Z,22.90
2022-09-28T19:38:44.302Z,22.90
2022-09-28T19:41:11.472Z,22.90
2022-09-28T19:43:38.285Z,22.90
2022-09-28T19:46:05.753Z,22.90
2022-09-28T19:48:33.019Z,22.90
2022-09-28T19:51:01.553Z,22.90
2022-09-28T19:53:30.308Z,22.90
2022-09-28T19:55:57.656Z,22.90
2022-09-28T19:58:30.179Z,22.80
2022-09-28T20:00:56.916Z,22.80
2022-09-28T20:03:25.519Z,22.80
2022-09-28T20:05:58.822Z,22.80
2022-09-28T20:08:26.245Z,22.80
2022-09-28T20:10:54.524Z,22.80
2022-09-28T20:13:21.534Z,22.80
2022-09-28T20:15:48.235Z,22.80
2022-09-28T20:18:15.049Z,22.80
2022-09-28T20:20:42.543Z,22.80
2022-09-28T20:23:09.412Z,22.70
2022-09-28T20:25:36.104Z,22.80
2022-09-28T20:28:02.737Z,22.70
2022-09-28T20:30:29.356Z,22.70
2022-09-28T20:32:55.961Z,22.70
2022-09-28T20:35:32.710Z,22.70
2022-09-28T20:38:07.771Z,22.70
2022-09-28T20:40:37.127Z,22.70
2022-09-28T20:43:06.924Z,22.70
2022-09-28T20:45:39.248Z,22.60
2022-09-28T20:48:06.401Z,22.60
2022-09-28T20:50:33.883Z,22.60
2022-09-28T20:53:01.234Z,22.60
2022-09-28T20:55:27.933Z,22.60
2022-09-28T20:57:54.572Z,22.60
2022-09-28T21:00:21.414Z,22.60
2022-09-28T21:02:51.849Z,22.60
2022-09-28T21:05:18.527Z,22.50
2022-09-28T21:07:45.157Z,22.60
2022-09-28T21:10:11.829Z,22.50
2022-09-28T21:12:38.880Z,22.50
2022-09-28T21:15:06.285Z,22.50
2022-09-28T21:17:32.984Z,22.50
2022-09-28T21:19:59.622Z,22.50
2022-09-28T21:22:26.237Z,22.50
2022-09-28T21:24:52.853Z,22.50
2022-09-28T21:27:19.489Z,22.50
2022-09-28T21:29:46.099Z,22.50
2022-09-28T21:32:12.706Z,22.50
2022-09-28T21:34:39.352Z,22.50
2022-09-28T21:37:05.981Z,22.40
2022-09-28T21:39:32.632Z,22.40
2022-09-28T21:41:59.235Z,22.40
2022-09-28T21:44:25.861Z,22.40
2022-09-28T21:46:52.479Z,22.40
2022-09-28T21:49:19.563Z,22.40
2022-09-28T21:51:47.064Z,22.40
2022-09-28T21:54:13.774Z,22.40
2022-09-28T21:56:40.468Z,22.40
2022-09-28T21:59:07.082Z,22.40
2022-09-28T22:01:33.773Z,22.40
2022-09-28T22:04:00.722Z,22.40
2022-09-28T22:06:29.960Z,22.40
2022-09-28T22:08:56.683Z,22.40
2022-09-28T22:11:24.560Z,22.30
2022-09-28T22:13:56.376Z,22.30
2022-09-28T22:16:25.740Z,22.40
2022-09-28T22:18:52.432Z,22.30
2022-09-28T22:21:25.702Z,22.30
2022-09-28T22:23:52.753Z,22.30
2022-09-28T22:26:21.491Z,22.30
2022-09-28T22:28:49.691Z,22.30
2022-09-28T22:31:16.776Z,22.30
2022-09-28T22:33:43.707Z,22.30
2022-09-28T22:36:10.439Z,22.30
2022-09-28T22:38:37.629Z,22.20
2022-09-28T22:41:04.308Z,22.30
2022-09-28T22:43:31.031Z,22.30
2022-09-28T22:46:16.919Z,22.20
2022-09-28T22:48:47.493Z,22.20
2022-09-28T22:51:14.894Z,22.20
2022-09-28T22:53:41.529Z,22.20
2022-09-28T22:56:08.854Z,22.20
2022-09-28T22:58:35.725Z,22.20
2022-09-28T23:01:07.119Z,22.20
2022-09-28T23:03:33.761Z,22.10
2022-09-28T23:06:00.424Z,22.10
2022-09-28T23:08:27.593Z,22.20
2022-09-28T23:10:54.210Z,22.10
2022-09-28T23:13:20.803Z,22.10
2022-09-28T23:15:58.101Z,22.20
2022-09-28T23:18:26.034Z,22.10
2022-09-28T23:20:54.366Z,22.10
2022-09-28T23:23:20.991Z,22.20
2022-09-28T23:25:47.610Z,22.10
2022-09-28T23:28:14.284Z,22.10
2022-09-28T23:30:40.908Z,22.20
2022-09-28T23:33:09.505Z,22.10
2022-09-28T23:35:36.127Z,22.10
2022-09-28T23:38:02.728Z,22.10
2022-09-28T23:40:29.384Z,22.10
2022-09-28T23:42:56.028Z,22.10
2022-09-28T23:45:22.627Z,22.10
2022-09-28T23:47:49.259Z,22.10
2022-09-28T23:50:15.955Z,22.00
2022-09-28T23:52:42.583Z,22.10
2022-09-28T23:55:09.449Z,22.00
2022-09-28T23:57:36.122Z,22.00
